Aeroporto :
LOGIN :

Iscrizione | Disclaimer

   EN    FR    IT 

 










Sommario :    VFR   VFR Marginale   IFR   IFR Intensivo   IFR Molto Intensivo
Visibilità : 
Base nubi : 
>= 8 km
>= 3000ft
5 / 8 km
1000 / 3000 ft
1500m / 5 km
500 / 1000 ft
800 / 1500m
200 / 500 ft
< 800m
< 200 ft
Simboli :   Temporali  Nebbia  Neve Forte  Precipitazioni Forti  Vento > 20 kt
SIGMETs :   Varie  Temporali  Ghiacco  Turbolenza  Onda orograficha  Ceneri Vulcaniche






- Altitudine del aeroporto : 1470 ft


LSMD - Dubendorf Military

ULTIMO METAR :
  • 180020Z AUTO 25005KT 200V280 9999NDV -SHRA FEW012 SCT017 OVC044 05/03 Q1025 RESHRA RMK

METARs OBSOLETI :
  • 172350Z AUTO 27007KT 240V300 9999NDV -SHRA FEW010 SCT016 OVC018 05/03 Q1025 RESHRA RMK
  • 172320Z AUTO VRB01KT 9999NDV -SHRA BKN015 BKN018 OVC029 06/04 Q1024 RMK
  • 172250Z AUTO 00000KT 9999NDV -SHRA SCT017 OVC020 06/04 Q1024 RMK
  • 172220Z AUTO 00000KT 9999NDV FEW016 BKN018 OVC024 06/04 Q1024 RMK
  • 172150Z AUTO VRB02KT 9999NDV -RA FEW015 BKN018 OVC021 06/04 Q1023 RMK

Previsioni scadute.



MetMap, La meteo Aeronautica in un colpo d'occhio ! - Copyright ORBIFLY Dicembre 2007 - Disclaimer

ORBIFLY MET'MAP TEAM :

Programmazione e sviluppo : Alexandra Zaïnal
Concezione : Baudouin d'Aumeries
Aiuto per la programmazione : Marc-Olivier Méhu
Supporto tecnico e logistico : Manuel Goepfert
Aiuto per la traduzione : Arnaldo La Scala

Contatto : metmap@orbifly.com




FONTI E CREDITI :

   NOAA